Terminal Aerodrome Forecast
Issued by NWS

Home | Current Version | Previous Version | Text Only | Print | Product List | Glossary On
Versions: 1 2 3 4 5 6 7 8 9 10 11 12 13 14 15 16 17 18 19 20 21 22 23 24 25 26 27 28 29 30 31 32 33 34 35 36 37 38 39 40
000
FTAK31 PAFA 301417 AAA
TAFAQT
TAF AMD
PAQT 301417Z 3014/0112 24008KT 4SM -RASN BR OVC007
      TEMPO 3014/3018 1/2SM FG VV005
     FM302100 27015KT 2SM -SN BR OVC015
     FM010700 27010KT 5SM BR OVC007=

USA.gov is the U.S. government's official web portal to all federal, state and local government web resources and services.